createdAt,value
2023-03-02T00:00:07.584Z,3.23
2023-03-02T00:01:07.564Z,3.13
2023-03-02T00:02:07.725Z,3.27
2023-03-02T00:03:07.553Z,3.39
2023-03-02T00:04:07.635Z,3.53
2023-03-02T00:05:07.542Z,3.46
2023-03-02T00:06:07.540Z,3.52
2023-03-02T00:07:07.543Z,3.60
2023-03-02T00:08:07.558Z,3.47
2023-03-02T00:09:07.520Z,3.53
2023-03-02T00:10:07.519Z,3.62
2023-03-02T00:11:07.502Z,3.54
2023-03-02T00:12:07.514Z,3.53
2023-03-02T00:13:07.519Z,3.60
2023-03-02T00:14:07.512Z,3.65
2023-03-02T00:15:07.484Z,3.61
2023-03-02T00:16:07.510Z,3.67
2023-03-02T00:17:07.481Z,3.53
2023-03-02T00:18:07.491Z,3.53
2023-03-02T00:19:07.486Z,3.43
2023-03-02T00:20:07.456Z,3.20
2023-03-02T00:21:07.465Z,3.05
2023-03-02T00:22:09.024Z,3.02
2023-03-02T00:23:07.464Z,2.82
2023-03-02T00:24:07.470Z,2.97
2023-03-02T00:25:07.429Z,2.85
2023-03-02T00:26:07.415Z,2.64
2023-03-02T00:27:07.411Z,2.76
2023-03-02T00:28:07.402Z,2.64
2023-03-02T00:29:07.442Z,2.64
2023-03-02T00:30:07.406Z,2.46
2023-03-02T00:31:07.474Z,2.26
2023-03-02T00:32:07.470Z,2.20
2023-03-02T00:33:07.410Z,2.37
2023-03-02T00:34:07.391Z,2.44
2023-03-02T00:35:07.374Z,2.35
2023-03-02T00:36:07.391Z,2.40
2023-03-02T00:37:07.347Z,2.34
2023-03-02T00:38:07.394Z,2.37
2023-03-02T00:39:07.346Z,2.52
2023-03-02T00:40:07.329Z,2.37
2023-03-02T00:41:08.339Z,2.27
2023-03-02T00:42:07.329Z,2.04
2023-03-02T00:43:07.352Z,2.08
2023-03-02T00:44:07.314Z,2.08
2023-03-02T00:45:07.311Z,1.82
2023-03-02T00:46:07.337Z,1.83
2023-03-02T00:47:07.376Z,1.79
2023-03-02T00:48:07.275Z,1.85
2023-03-02T00:49:07.286Z,1.90
2023-03-02T00:50:07.258Z,1.87
2023-03-02T00:51:07.260Z,2.04
2023-03-02T00:52:07.273Z,1.73
2023-03-02T00:53:07.238Z,1.64
2023-03-02T00:54:07.248Z,1.60
2023-03-02T00:55:07.221Z,1.80
2023-03-02T00:56:07.231Z,1.79
2023-03-02T00:57:07.224Z,1.87
2023-03-02T00:58:07.206Z,1.93
2023-03-02T00:59:07.238Z,1.90
2023-03-02T01:00:07.201Z,1.91
2023-03-02T01:01:07.233Z,1.75
2023-03-02T01:02:07.269Z,1.83
2023-03-02T01:03:07.224Z,1.80
2023-03-02T01:04:07.183Z,1.73
2023-03-02T01:05:07.192Z,1.73
2023-03-02T01:06:07.182Z,1.69
2023-03-02T01:07:07.165Z,1.68
2023-03-02T01:08:07.135Z,1.75
2023-03-02T01:09:07.167Z,1.80
2023-03-02T01:10:07.164Z,1.85
2023-03-02T01:11:07.228Z,1.73
2023-03-02T01:12:07.208Z,1.87
2023-03-02T01:13:07.121Z,1.87
2023-03-02T01:14:07.109Z,1.72
2023-03-02T01:15:07.098Z,1.69
2023-03-02T01:16:07.165Z,1.55
2023-03-02T01:17:07.172Z,1.58
2023-03-02T01:18:07.087Z,1.62
2023-03-02T01:19:07.071Z,1.61
2023-03-02T01:20:07.074Z,1.64
2023-03-02T01:21:07.076Z,1.55
2023-03-02T01:22:07.063Z,1.57
2023-03-02T01:23:07.052Z,1.55
2023-03-02T01:24:07.042Z,1.51
2023-03-02T01:25:07.056Z,1.61
2023-03-02T01:26:07.026Z,1.61
2023-03-02T01:27:07.032Z,1.55
2023-03-02T01:28:07.054Z,1.62
2023-03-02T01:29:07.018Z,1.73
2023-03-02T01:30:07.009Z,1.91
2023-03-02T01:31:07.036Z,1.85
2023-03-02T01:32:07.060Z,1.79
2023-03-02T01:33:07.009Z,1.85
2023-03-02T01:34:06.999Z,2.04
2023-03-02T01:35:06.986Z,1.90
2023-03-02T01:36:06.967Z,1.98
2023-03-02T01:37:06.963Z,1.99
2023-03-02T01:38:07.044Z,2.09
2023-03-02T01:39:06.942Z,1.94
2023-03-02T01:40:06.937Z,1.98
2023-03-02T01:41:06.953Z,1.87
2023-03-02T01:42:06.937Z,2.02
2023-03-02T01:43:06.941Z,2.02
2023-03-02T01:44:06.962Z,2.10
2023-03-02T01:45:06.898Z,2.19
2023-03-02T01:46:07.027Z,2.01
2023-03-02T01:47:06.891Z,2.06
2023-03-02T01:48:06.906Z,2.17
2023-03-02T01:49:06.884Z,2.12
2023-03-02T01:50:06.885Z,2.09
2023-03-02T01:51:06.866Z,2.10
2023-03-02T01:52:06.866Z,2.02
2023-03-02T01:53:06.867Z,2.06
2023-03-02T01:54:06.900Z,2.09
2023-03-02T01:55:06.864Z,2.06
2023-03-02T01:56:06.833Z,1.97
2023-03-02T01:57:06.842Z,2.09
2023-03-02T01:58:06.875Z,2.15
2023-03-02T01:59:06.843Z,2.15
2023-03-02T02:00:06.824Z,2.12
2023-03-02T02:01:06.860Z,2.20
2023-03-02T02:02:06.849Z,2.12
2023-03-02T02:03:06.790Z,2.08
2023-03-02T02:04:06.814Z,2.02
2023-03-02T02:05:06.801Z,1.94
2023-03-02T02:06:06.792Z,1.91
2023-03-02T02:07:06.774Z,2.01
2023-03-02T02:08:06.777Z,1.94
2023-03-02T02:09:06.774Z,1.93
2023-03-02T02:10:06.771Z,1.97
2023-03-02T02:11:06.749Z,2.04
2023-03-02T02:12:06.757Z,2.06
2023-03-02T02:13:06.730Z,2.01
2023-03-02T02:14:06.717Z,1.99
2023-03-02T02:15:06.734Z,2.08
2023-03-02T02:16:06.907Z,2.12
2023-03-02T02:17:06.701Z,2.23
2023-03-02T02:18:06.740Z,2.22
2023-03-02T02:19:06.695Z,2.22
2023-03-02T02:20:06.678Z,2.12
2023-03-02T02:21:06.746Z,2.08
2023-03-02T02:22:06.683Z,2.04
2023-03-02T02:23:07.518Z,2.01
2023-03-02T02:24:06.670Z,1.99
2023-03-02T02:25:06.673Z,1.99
2023-03-02T02:26:06.672Z,1.99
2023-03-02T02:27:06.690Z,1.89
2023-03-02T02:28:06.647Z,1.97
2023-03-02T02:29:06.633Z,2.06
2023-03-02T02:30:06.643Z,1.85
2023-03-02T02:31:06.640Z,1.83
2023-03-02T02:32:06.645Z,1.75
2023-03-02T02:33:06.616Z,1.91
2023-03-02T02:34:06.591Z,1.78
2023-03-02T02:35:06.594Z,1.90
2023-03-02T02:36:06.612Z,1.87
2023-03-02T02:37:06.583Z,1.98
2023-03-02T02:38:06.592Z,1.97
2023-03-02T02:39:06.592Z,1.90
2023-03-02T02:40:06.546Z,2.06
2023-03-02T02:41:06.551Z,1.91
2023-03-02T02:42:06.553Z,1.82
2023-03-02T02:43:06.584Z,1.79
2023-03-02T02:44:06.542Z,1.90
2023-03-02T02:45:06.549Z,1.89
2023-03-02T02:46:06.604Z,1.98
2023-03-02T02:47:06.526Z,2.06
2023-03-02T02:48:06.502Z,1.90
2023-03-02T02:49:06.523Z,2.04
2023-03-02T02:50:06.503Z,1.87
2023-03-02T02:51:06.494Z,1.80
2023-03-02T02:52:06.517Z,1.62
2023-03-02T02:53:06.474Z,1.33
2023-03-02T02:54:06.499Z,1.21
2023-03-02T02:55:06.461Z,1.10
2023-03-02T02:56:06.485Z,1.29
2023-03-02T02:57:06.470Z,1.36
2023-03-02T02:58:06.446Z,1.28
2023-03-02T02:59:06.450Z,1.46
2023-03-02T03:00:06.419Z,1.37
2023-03-02T03:01:06.449Z,1.51
2023-03-02T03:02:06.412Z,1.46
2023-03-02T03:03:06.467Z,1.72
2023-03-02T03:04:06.541Z,1.51
2023-03-02T03:05:06.399Z,1.52
2023-03-02T03:06:07.390Z,1.34
2023-03-02T03:07:06.386Z,1.34
2023-03-02T03:08:06.403Z,1.50
2023-03-02T03:09:06.391Z,1.60
2023-03-02T03:10:06.387Z,1.44
2023-03-02T03:11:06.343Z,1.61
2023-03-02T03:12:06.366Z,1.40
2023-03-02T03:13:06.339Z,1.32
2023-03-02T03:14:06.393Z,1.33
2023-03-02T03:15:06.333Z,1.55
2023-03-02T03:16:06.340Z,1.52
2023-03-02T03:17:06.381Z,1.44
2023-03-02T03:18:06.347Z,1.44
2023-03-02T03:19:06.320Z,1.37
2023-03-02T03:20:06.511Z,1.29
2023-03-02T03:21:06.291Z,1.32
2023-03-02T03:22:06.289Z,1.29
2023-03-02T03:23:06.273Z,1.25
2023-03-02T03:24:06.296Z,1.15
2023-03-02T03:25:06.267Z,1.25
2023-03-02T03:26:06.247Z,1.36
2023-03-02T03:27:06.265Z,1.51
2023-03-02T03:28:06.254Z,1.47
2023-03-02T03:29:06.258Z,1.55
2023-03-02T03:30:06.232Z,1.62
2023-03-02T03:31:06.269Z,1.78
2023-03-02T03:32:06.304Z,1.71
2023-03-02T03:33:06.220Z,1.87
2023-03-02T03:34:06.248Z,1.82
2023-03-02T03:35:06.211Z,1.83
2023-03-02T03:36:06.180Z,1.72
2023-03-02T03:37:06.191Z,1.85
2023-03-02T03:38:06.206Z,1.94
2023-03-02T03:39:06.185Z,1.90
2023-03-02T03:40:06.188Z,1.90
2023-03-02T03:41:06.155Z,1.69
2023-03-02T03:42:06.141Z,1.80
2023-03-02T03:43:06.136Z,1.80
2023-03-02T03:44:06.148Z,1.78
2023-03-02T03:45:06.131Z,1.57
2023-03-02T03:46:06.159Z,1.69
2023-03-02T03:47:06.131Z,1.71
2023-03-02T03:48:06.116Z,1.42
2023-03-02T03:49:06.153Z,1.15
2023-03-02T03:50:06.103Z,1.06
2023-03-02T03:51:06.087Z,1.06
2023-03-02T03:52:06.092Z,1.04
2023-03-02T03:53:06.099Z,1.03
2023-03-02T03:54:06.099Z,0.98
2023-03-02T03:55:06.089Z,1.06
2023-03-02T03:56:06.061Z,1.07
2023-03-02T03:57:06.158Z,1.19
2023-03-02T03:58:06.035Z,1.16
2023-03-02T03:59:06.060Z,1.34
2023-03-02T04:00:06.047Z,1.32
2023-03-02T04:01:06.054Z,1.28
2023-03-02T04:02:06.047Z,1.15
2023-03-02T04:03:06.018Z,1.07
2023-03-02T04:04:06.012Z,1.25
2023-03-02T04:05:06.011Z,1.08
2023-03-02T04:06:06.000Z,1.00
2023-03-02T04:07:05.994Z,1.07
2023-03-02T04:08:06.026Z,1.24
2023-03-02T04:09:05.996Z,1.15
2023-03-02T04:10:05.967Z,1.16
2023-03-02T04:11:06.002Z,1.16
2023-03-02T04:12:05.935Z,0.92
2023-03-02T04:13:05.943Z,1.01
2023-03-02T04:14:05.954Z,1.10
2023-03-02T04:15:05.936Z,1.00
2023-03-02T04:16:06.493Z,0.98
2023-03-02T04:17:05.915Z,1.07
2023-03-02T04:18:05.910Z,1.18
2023-03-02T04:19:05.956Z,1.21
2023-03-02T04:20:05.899Z,1.10
2023-03-02T04:21:05.936Z,1.10
2023-03-02T04:22:05.893Z,0.97
2023-03-02T04:23:05.887Z,1.00
2023-03-02T04:24:39.636Z,1.03
2023-03-02T04:29:57.981Z,0.94
2023-03-02T04:31:33.147Z,0.96
2023-03-02T04:32:32.621Z,1.04
2023-03-02T04:32:59.099Z,1.14
2023-03-02T04:33:59.058Z,1.21
2023-03-02T04:35:31.579Z,1.25
2023-03-02T04:36:32.984Z,1.40
2023-03-02T04:37:32.536Z,1.34
2023-03-02T04:38:31.497Z,1.40
2023-03-02T04:39:32.551Z,1.50
2023-03-02T04:39:59.034Z,1.58
2023-03-02T04:40:59.074Z,1.54
2023-03-02T04:41:59.042Z,1.65
2023-03-02T04:42:59.009Z,1.72
2023-03-02T04:43:59.032Z,1.73
2023-03-02T04:44:59.043Z,1.76
2023-03-02T04:45:59.065Z,1.73
2023-03-02T04:46:59.037Z,1.73
2023-03-02T04:47:58.992Z,1.71
2023-03-02T04:48:58.979Z,1.65
2023-03-02T04:49:58.980Z,1.72
2023-03-02T04:50:58.979Z,1.54
2023-03-02T04:51:58.989Z,1.58
2023-03-02T04:52:59.012Z,1.64
2023-03-02T04:53:58.985Z,1.68
2023-03-02T04:54:58.966Z,1.68
2023-03-02T04:55:58.974Z,1.78
2023-03-02T04:56:58.936Z,1.82
2023-03-02T04:57:58.947Z,1.89
2023-03-02T04:58:58.935Z,1.69
2023-03-02T04:59:58.966Z,1.69
2023-03-02T05:00:58.948Z,1.64
2023-03-02T05:01:58.998Z,1.75
2023-03-02T05:02:58.916Z,1.80
2023-03-02T05:03:59.842Z,1.78
2023-03-02T05:04:58.967Z,1.73
2023-03-02T05:05:58.892Z,1.75
2023-03-02T05:06:58.906Z,1.57
2023-03-02T05:07:58.879Z,1.75
2023-03-02T05:08:58.872Z,1.87
2023-03-02T05:09:58.888Z,1.69
2023-03-02T05:10:58.856Z,1.71
2023-03-02T05:11:58.848Z,1.73
2023-03-02T05:12:58.881Z,1.65
2023-03-02T05:13:58.845Z,1.64
2023-03-02T05:14:58.833Z,1.58
2023-03-02T05:15:58.864Z,1.64
2023-03-02T05:16:58.835Z,1.47
2023-03-02T05:17:58.850Z,1.55
2023-03-02T05:18:58.809Z,1.29
2023-03-02T05:19:58.825Z,1.28
2023-03-02T05:20:58.799Z,1.29
2023-03-02T05:21:58.801Z,1.37
2023-03-02T05:22:58.815Z,1.25
2023-03-02T05:23:58.807Z,1.24
2023-03-02T05:24:58.793Z,1.16
2023-03-02T05:25:58.759Z,1.28
2023-03-02T05:26:58.765Z,1.29
2023-03-02T05:27:58.780Z,1.26
2023-03-02T05:28:58.782Z,1.39
2023-03-02T05:29:58.777Z,1.28
2023-03-02T05:30:58.870Z,1.32
2023-03-02T05:31:58.735Z,1.33
2023-03-02T05:32:58.744Z,1.25
2023-03-02T05:33:58.728Z,1.32
2023-03-02T05:34:58.801Z,1.47
2023-03-02T05:35:58.751Z,1.55
2023-03-02T05:36:58.713Z,1.57
2023-03-02T05:37:58.717Z,1.65
2023-03-02T05:38:58.696Z,1.52
2023-03-02T05:39:58.844Z,1.62
2023-03-02T05:40:58.734Z,1.57
2023-03-02T05:41:58.690Z,1.40
2023-03-02T05:42:58.664Z,1.42
2023-03-02T05:43:58.692Z,1.36
2023-03-02T05:44:58.709Z,1.33
2023-03-02T05:45:58.666Z,1.29
2023-03-02T05:46:58.719Z,1.22
2023-03-02T05:47:58.640Z,1.33
2023-03-02T05:48:58.628Z,1.25
2023-03-02T05:49:58.630Z,1.25
2023-03-02T05:50:58.680Z,1.16
2023-03-02T05:51:58.610Z,1.14
2023-03-02T05:52:58.617Z,1.08
2023-03-02T05:53:58.611Z,1.18
2023-03-02T05:54:59.562Z,1.25
2023-03-02T05:55:59.613Z,1.34
2023-03-02T05:56:58.611Z,1.34
2023-03-02T05:57:58.664Z,1.44
2023-03-02T05:58:58.585Z,1.37
2023-03-02T05:59:58.577Z,1.40
2023-03-02T06:00:58.704Z,1.62
2023-03-02T06:01:58.981Z,1.60
2023-03-02T06:02:58.689Z,1.76
2023-03-02T06:03:59.561Z,1.76
2023-03-02T06:04:58.565Z,1.75
2023-03-02T06:05:58.524Z,1.79
2023-03-02T06:06:58.753Z,1.82
2023-03-02T06:07:58.610Z,1.89
2023-03-02T06:08:58.518Z,1.72
2023-03-02T06:09:58.544Z,1.80
2023-03-02T06:10:58.544Z,1.72
2023-03-02T06:11:58.508Z,1.64
2023-03-02T06:13:01.469Z,1.52
2023-03-02T06:13:59.517Z,1.54
2023-03-02T06:14:59.437Z,1.52
2023-03-02T06:15:58.901Z,1.42
2023-03-02T06:16:58.798Z,1.52
2023-03-02T06:17:58.569Z,1.36
2023-03-02T06:18:58.639Z,1.39
2023-03-02T06:19:59.810Z,1.39
2023-03-02T06:20:58.551Z,1.44
2023-03-02T06:21:58.451Z,1.39
2023-03-02T06:22:58.477Z,1.50
2023-03-02T06:23:58.521Z,1.55
2023-03-02T06:24:58.455Z,1.39
2023-03-02T06:25:58.475Z,1.54
2023-03-02T06:26:58.423Z,1.52
2023-03-02T06:27:58.416Z,1.58
2023-03-02T06:28:58.894Z,1.58
2023-03-02T06:29:58.414Z,1.61
2023-03-02T06:30:58.409Z,1.60
2023-03-02T06:31:58.550Z,1.62
2023-03-02T06:32:58.413Z,1.68
2023-03-02T06:33:58.416Z,1.64
2023-03-02T06:34:58.507Z,1.71
2023-03-02T06:35:58.526Z,1.87
2023-03-02T06:36:58.372Z,1.68
2023-03-02T06:37:58.388Z,1.58
2023-03-02T06:38:58.400Z,1.75
2023-03-02T06:39:59.418Z,1.80
2023-03-02T06:40:58.370Z,1.94
2023-03-02T06:41:58.351Z,1.85
2023-03-02T06:42:58.345Z,1.83
2023-03-02T06:43:58.328Z,1.89
2023-03-02T06:44:58.404Z,1.71
2023-03-02T06:45:58.373Z,1.83
2023-03-02T06:46:58.332Z,1.87
2023-03-02T06:47:58.330Z,1.99
2023-03-02T06:48:58.367Z,2.04
2023-03-02T06:49:58.380Z,2.08
2023-03-02T06:50:58.285Z,2.10
2023-03-02T06:51:58.295Z,2.15
2023-03-02T06:52:58.273Z,2.30
2023-03-02T06:53:58.283Z,2.38
2023-03-02T06:54:58.281Z,2.23
2023-03-02T06:55:58.290Z,2.30
2023-03-02T06:56:58.243Z,2.31
2023-03-02T06:57:58.291Z,2.44
2023-03-02T06:58:58.246Z,2.51
2023-03-02T06:59:58.239Z,2.45
2023-03-02T07:00:58.289Z,2.55
2023-03-02T07:01:58.220Z,2.59
2023-03-02T07:02:58.204Z,2.67
2023-03-02T07:03:58.239Z,2.63
2023-03-02T07:04:58.193Z,2.61
2023-03-02T07:05:58.237Z,2.59
2023-03-02T07:06:58.228Z,2.64
2023-03-02T07:07:58.176Z,2.69
2023-03-02T07:08:58.173Z,2.67
2023-03-02T07:09:58.198Z,2.49
2023-03-02T07:10:58.182Z,2.46
2023-03-02T07:11:58.776Z,2.55
2023-03-02T07:12:58.764Z,2.76
2023-03-02T07:13:58.137Z,2.98
2023-03-02T07:14:58.137Z,3.49
2023-03-02T07:15:58.160Z,4.39
2023-03-02T07:16:58.217Z,5.53
2023-03-02T07:17:58.123Z,6.22
2023-03-02T07:18:58.130Z,6.98
2023-03-02T07:19:58.112Z,7.15
2023-03-02T07:20:58.099Z,7.72
2023-03-02T07:21:58.144Z,8.62
2023-03-02T07:22:58.668Z,9.46
2023-03-02T07:23:58.239Z,10.06
2023-03-02T07:24:58.108Z,10.70
2023-03-02T07:25:58.128Z,11.03
2023-03-02T07:26:59.058Z,11.75
2023-03-02T07:27:58.085Z,12.08
2023-03-02T07:28:58.037Z,12.78
2023-03-02T07:29:58.124Z,13.03
2023-03-02T07:30:58.078Z,13.38
2023-03-02T07:31:58.032Z,13.54
2023-03-02T07:32:58.056Z,13.74
2023-03-02T07:33:58.021Z,13.22
2023-03-02T07:34:58.019Z,11.72
2023-03-02T07:35:58.065Z,11.07
2023-03-02T07:36:58.017Z,11.07
2023-03-02T07:37:58.015Z,11.70
2023-03-02T07:38:58.016Z,12.31
2023-03-02T07:39:59.690Z,10.25
2023-03-02T07:40:58.992Z,9.64
2023-03-02T07:41:58.986Z,9.82
2023-03-02T07:42:57.980Z,9.70
2023-03-02T07:43:57.954Z,9.24
2023-03-02T07:44:57.984Z,9.73
2023-03-02T07:45:59.551Z,9.58
2023-03-02T07:46:59.005Z,9.34
2023-03-02T07:47:57.983Z,9.46
2023-03-02T07:48:57.927Z,9.39
2023-03-02T07:49:57.918Z,9.68
2023-03-02T07:50:57.955Z,9.82
2023-03-02T07:51:57.927Z,9.56
2023-03-02T07:52:59.878Z,9.81
2023-03-02T07:53:58.942Z,10.01
2023-03-02T07:54:57.891Z,9.24
2023-03-02T07:55:57.899Z,9.39
2023-03-02T07:56:57.900Z,9.75
2023-03-02T07:57:57.871Z,9.56
2023-03-02T07:58:57.889Z,10.59
2023-03-02T07:59:57.895Z,10.84
2023-03-02T08:00:57.907Z,10.68
2023-03-02T08:01:58.012Z,10.71
2023-03-02T08:02:57.955Z,10.37
2023-03-02T08:03:57.862Z,10.73
2023-03-02T08:04:57.823Z,10.21
2023-03-02T08:05:57.839Z,10.94
2023-03-02T08:06:57.846Z,11.61
2023-03-02T08:07:58.742Z,12.81
2023-03-02T08:08:57.805Z,12.31
2023-03-02T08:09:57.825Z,11.46
2023-03-02T08:10:57.836Z,12.45
2023-03-02T08:11:57.780Z,12.59
2023-03-02T08:12:57.810Z,12.77
2023-03-02T08:13:57.773Z,12.05
2023-03-02T08:14:57.782Z,11.28
2023-03-02T08:15:57.830Z,12.24
2023-03-02T08:16:57.763Z,12.02
2023-03-02T08:17:57.734Z,12.52
2023-03-02T08:18:59.834Z,13.71
2023-03-02T08:19:58.780Z,13.99
2023-03-02T08:20:57.729Z,13.67
2023-03-02T08:21:57.714Z,13.29
2023-03-02T08:22:57.738Z,12.42
2023-03-02T08:23:57.796Z,12.45
2023-03-02T08:24:57.720Z,12.78
2023-03-02T08:25:58.711Z,13.69
2023-03-02T08:26:57.689Z,13.25
2023-03-02T08:27:57.694Z,13.65
2023-03-02T08:28:57.729Z,14.54
2023-03-02T08:29:57.683Z,14.56
2023-03-02T08:30:57.687Z,14.68
2023-03-02T08:31:57.772Z,15.11
2023-03-02T08:32:57.660Z,14.61
2023-03-02T08:36:08.963Z,14.42
2023-03-02T08:37:44.442Z,14.90
2023-03-02T08:41:36.512Z,12.92
2023-03-02T08:43:11.030Z,12.81
2023-03-02T08:43:37.523Z,12.75
2023-03-02T08:44:37.539Z,13.22
2023-03-02T08:45:37.601Z,13.38
2023-03-02T08:47:11.123Z,13.30
2023-03-02T08:47:37.493Z,13.59
2023-03-02T08:49:10.733Z,13.58
2023-03-02T08:51:37.688Z,12.96
2023-03-02T08:52:38.938Z,13.38
2023-03-02T08:53:38.829Z,14.07
2023-03-02T08:54:38.806Z,13.94
2023-03-02T08:55:38.766Z,14.72
2023-03-02T08:56:38.786Z,15.48
2023-03-02T08:57:38.876Z,14.94
2023-03-02T08:58:38.770Z,15.63
2023-03-02T08:59:38.935Z,15.76
2023-03-02T09:00:38.811Z,16.07
2023-03-02T09:01:38.881Z,16.37
2023-03-02T09:02:39.843Z,16.63
2023-03-02T09:03:38.895Z,17.99
2023-03-02T09:04:38.802Z,17.08
2023-03-02T09:05:38.719Z,17.07
2023-03-02T09:06:38.732Z,17.13
2023-03-02T09:07:38.690Z,17.23
2023-03-02T09:08:38.738Z,17.85
2023-03-02T09:09:38.703Z,18.44
2023-03-02T09:10:38.669Z,19.20
2023-03-02T09:11:38.665Z,18.15
2023-03-02T09:12:38.676Z,16.49
2023-03-02T09:13:38.739Z,17.25
2023-03-02T09:14:38.687Z,17.76
2023-03-02T09:15:38.650Z,17.26
2023-03-02T09:16:38.683Z,17.74
2023-03-02T09:17:38.634Z,17.15
2023-03-02T09:18:38.664Z,18.10
2023-03-02T09:19:38.772Z,19.39
2023-03-02T09:20:38.728Z,20.58
2023-03-02T09:21:38.728Z,20.09
2023-03-02T09:22:38.597Z,20.72
2023-03-02T09:23:38.791Z,20.00
2023-03-02T09:24:38.599Z,20.03
2023-03-02T09:25:38.613Z,19.50
2023-03-02T09:26:38.589Z,19.86
2023-03-02T09:27:38.568Z,20.68
2023-03-02T09:28:38.693Z,20.80
2023-03-02T09:29:38.591Z,20.21
2023-03-02T09:30:38.571Z,20.61
2023-03-02T09:31:38.969Z,21.66
2023-03-02T09:32:38.697Z,21.66
2023-03-02T09:33:38.539Z,19.20
2023-03-02T09:34:38.580Z,17.00
2023-03-02T09:35:38.542Z,17.00
2023-03-02T09:36:38.538Z,18.64
2023-03-02T09:37:38.602Z,19.65
2023-03-02T09:38:38.516Z,20.62
2023-03-02T09:39:38.607Z,19.95
2023-03-02T09:40:38.531Z,19.28
2023-03-02T09:41:38.503Z,18.12
2023-03-02T09:42:44.113Z,17.08
2023-03-02T09:43:40.465Z,16.60
2023-03-02T09:44:38.471Z,15.99
2023-03-02T09:45:38.524Z,14.88
2023-03-02T09:46:38.447Z,16.18
2023-03-02T09:47:38.435Z,16.48
2023-03-02T09:48:38.459Z,17.14
2023-03-02T09:49:38.438Z,17.55
2023-03-02T09:50:38.452Z,17.53
2023-03-02T09:51:38.494Z,18.98
2023-03-02T09:52:38.425Z,20.06
2023-03-02T09:53:38.408Z,20.34
2023-03-02T09:54:38.539Z,18.79
2023-03-02T09:55:38.423Z,17.14
2023-03-02T09:56:38.382Z,17.15
2023-03-02T09:57:38.388Z,17.11
2023-03-02T09:58:38.574Z,16.95
2023-03-02T09:59:38.433Z,16.83
2023-03-02T10:00:38.378Z,16.03
2023-03-02T10:01:38.407Z,15.08
2023-03-02T10:02:38.375Z,15.45
2023-03-02T10:03:38.528Z,16.06
2023-03-02T10:04:38.553Z,16.60
2023-03-02T10:05:38.366Z,17.18
2023-03-02T10:06:38.350Z,16.41
2023-03-02T10:07:38.897Z,16.86
2023-03-02T10:08:38.357Z,17.15
2023-03-02T10:09:38.322Z,18.62
2023-03-02T10:10:38.290Z,19.17
2023-03-02T10:11:38.307Z,18.84
2023-03-02T10:12:38.290Z,18.94
2023-03-02T10:13:38.287Z,19.10
2023-03-02T10:14:38.279Z,18.92
2023-03-02T10:15:38.321Z,19.42
2023-03-02T10:16:38.381Z,19.33
2023-03-02T10:17:38.286Z,18.84
2023-03-02T10:18:38.248Z,17.25
2023-03-02T10:19:38.249Z,16.68
2023-03-02T10:20:38.233Z,16.34
2023-03-02T10:21:38.346Z,16.23
2023-03-02T10:22:38.226Z,16.35
2023-03-02T10:23:38.249Z,16.92
2023-03-02T10:24:38.215Z,18.27
2023-03-02T10:25:38.206Z,17.30
2023-03-02T10:26:38.202Z,17.69
2023-03-02T10:27:38.228Z,18.33
2023-03-02T10:28:38.197Z,19.18
2023-03-02T10:29:39.345Z,19.43
2023-03-02T10:30:38.339Z,19.08
2023-03-02T10:31:38.169Z,17.62
2023-03-02T10:32:38.278Z,19.46
2023-03-02T10:33:38.376Z,19.55
2023-03-02T10:34:38.176Z,18.28
2023-03-02T10:35:38.208Z,19.18
2023-03-02T10:36:38.313Z,18.54
2023-03-02T10:37:38.269Z,17.43
2023-03-02T10:38:38.146Z,17.28
2023-03-02T10:39:38.148Z,17.81
2023-03-02T10:40:38.180Z,17.22
2023-03-02T10:41:39.878Z,16.83
2023-03-02T10:42:38.095Z,17.08
2023-03-02T10:43:38.219Z,18.17
2023-03-02T10:44:38.085Z,18.92
2023-03-02T10:45:38.114Z,18.31
2023-03-02T10:46:38.130Z,18.36
2023-03-02T10:47:38.099Z,18.98
2023-03-02T10:48:40.908Z,18.39
2023-03-02T10:49:39.050Z,18.06
2023-03-02T10:50:38.054Z,19.38
2023-03-02T10:51:38.073Z,19.83
2023-03-02T10:52:38.042Z,19.28
2023-03-02T10:53:38.034Z,20.47
2023-03-02T10:54:38.040Z,20.77
2023-03-02T10:55:38.087Z,20.68
2023-03-02T10:56:38.106Z,20.33
2023-03-02T10:57:38.469Z,20.00
2023-03-02T10:58:38.041Z,18.92
2023-03-02T10:59:38.080Z,19.35
2023-03-02T11:00:38.999Z,18.22
2023-03-02T11:01:38.055Z,17.94
2023-03-02T11:02:38.054Z,18.00
2023-03-02T11:03:38.038Z,18.27
2023-03-02T11:04:38.042Z,18.70
2023-03-02T11:05:37.974Z,19.61
2023-03-02T11:06:37.985Z,19.40
2023-03-02T11:07:38.039Z,19.13
2023-03-02T11:08:37.956Z,18.70
2023-03-02T11:09:38.060Z,19.18
2023-03-02T11:10:37.977Z,18.84
2023-03-02T11:11:38.370Z,19.32
2023-03-02T11:12:37.966Z,20.34
2023-03-02T11:13:37.986Z,20.77
2023-03-02T11:14:38.943Z,20.43
2023-03-02T11:15:38.029Z,19.54
2023-03-02T11:16:38.007Z,19.98
2023-03-02T11:17:37.923Z,19.91
2023-03-02T11:18:37.932Z,20.00
2023-03-02T11:19:37.904Z,19.33
2023-03-02T11:20:37.958Z,19.83
2023-03-02T11:21:37.889Z,19.18
2023-03-02T11:22:37.914Z,18.43
2023-03-02T11:23:37.909Z,19.73
2023-03-02T11:24:37.891Z,18.82
2023-03-02T11:25:38.025Z,17.00
2023-03-02T11:26:38.935Z,17.89
2023-03-02T11:27:37.877Z,18.82
2023-03-02T11:28:37.883Z,18.87
2023-03-02T11:29:37.864Z,18.94
2023-03-02T11:30:37.868Z,20.18
2023-03-02T11:31:38.031Z,20.86
2023-03-02T11:32:37.899Z,20.16
2023-03-02T11:33:37.852Z,20.15
2023-03-02T11:34:37.857Z,20.62
2023-03-02T11:35:37.829Z,20.41
2023-03-02T11:36:38.478Z,20.71
2023-03-02T11:37:37.908Z,20.27
2023-03-02T11:38:37.908Z,20.43
2023-03-02T11:39:46.553Z,21.66
2023-03-02T11:40:39.672Z,20.83
2023-03-02T11:41:37.869Z,20.35
2023-03-02T11:42:37.892Z,20.05
2023-03-02T11:43:37.800Z,18.95
2023-03-02T11:44:37.748Z,18.74
2023-03-02T11:45:37.772Z,19.36
2023-03-02T11:46:38.650Z,20.91
2023-03-02T11:47:37.742Z,21.32
2023-03-02T11:48:37.720Z,20.09
2023-03-02T11:49:37.738Z,19.63
2023-03-02T11:50:37.710Z,19.50
2023-03-02T11:51:39.124Z,18.67
2023-03-02T11:52:37.918Z,18.57
2023-03-02T11:53:37.730Z,18.59
2023-03-02T11:54:37.702Z,19.01
2023-03-02T11:55:37.693Z,19.65
2023-03-02T11:56:37.702Z,19.13
2023-03-02T11:57:39.337Z,18.90
2023-03-02T11:58:38.660Z,18.57
2023-03-02T11:59:37.676Z,18.54
2023-03-02T12:00:37.681Z,18.40
2023-03-02T12:01:38.520Z,18.33
2023-03-02T12:02:38.627Z,19.94
2023-03-02T12:03:37.631Z,20.06
2023-03-02T12:04:37.627Z,18.67
2023-03-02T12:05:37.705Z,19.28
2023-03-02T12:06:37.619Z,19.83
2023-03-02T12:07:37.603Z,19.36
2023-03-02T12:08:38.459Z,19.13
2023-03-02T12:09:37.605Z,18.42
2023-03-02T12:10:37.581Z,17.91
2023-03-02T12:11:37.604Z,18.62
2023-03-02T12:12:37.580Z,18.67
2023-03-02T12:13:37.564Z,18.58
2023-03-02T12:14:37.734Z,18.36
2023-03-02T12:15:37.591Z,18.87
2023-03-02T12:16:37.631Z,18.97
2023-03-02T12:17:37.633Z,18.98
2023-03-02T12:18:37.541Z,20.03
2023-03-02T12:19:37.556Z,19.97
2023-03-02T12:20:37.583Z,20.79
2023-03-02T12:21:37.705Z,20.35
2023-03-02T12:22:37.676Z,19.51
2023-03-02T12:23:37.500Z,19.79
2023-03-02T12:24:37.536Z,19.01
2023-03-02T12:25:37.529Z,19.68
2023-03-02T12:26:37.533Z,19.68
2023-03-02T12:27:37.519Z,19.08
2023-03-02T12:28:37.485Z,18.09
2023-03-02T12:29:37.456Z,17.69
2023-03-02T12:30:37.484Z,18.70
2023-03-02T12:31:37.478Z,19.65
2023-03-02T12:32:37.518Z,19.58
2023-03-02T12:33:37.451Z,19.75
2023-03-02T12:34:37.464Z,20.49
2023-03-02T12:35:37.476Z,20.79
2023-03-02T12:36:37.426Z,21.01
2023-03-02T12:37:38.019Z,21.17
2023-03-02T12:38:38.486Z,20.86
2023-03-02T12:39:37.401Z,19.95
2023-03-02T12:40:37.404Z,19.05
2023-03-02T12:41:37.431Z,19.50
2023-03-02T12:42:37.401Z,18.31
2023-03-02T12:43:37.401Z,18.39
2023-03-02T12:44:37.380Z,19.06
2023-03-02T12:45:37.469Z,19.93
2023-03-02T12:46:37.584Z,19.43
2023-03-02T12:47:38.554Z,20.20
2023-03-02T12:48:37.355Z,21.06
2023-03-02T12:49:37.348Z,21.38
2023-03-02T12:50:37.354Z,20.25
2023-03-02T12:51:37.449Z,19.88
2023-03-02T12:52:37.420Z,19.83
2023-03-02T12:53:37.315Z,20.21
2023-03-02T12:54:37.351Z,20.62
2023-03-02T12:55:37.326Z,20.49
2023-03-02T12:56:37.694Z,20.68
2023-03-02T12:57:37.321Z,19.94
2023-03-02T12:58:37.369Z,20.50
2023-03-02T12:59:37.413Z,20.35
2023-03-02T13:00:37.283Z,20.42
2023-03-02T13:01:37.271Z,20.13
2023-03-02T13:02:37.284Z,19.79
2023-03-02T13:03:37.288Z,19.02
2023-03-02T13:04:37.248Z,19.33
2023-03-02T13:05:37.270Z,19.86
2023-03-02T13:06:37.245Z,19.36
2023-03-02T13:07:37.258Z,20.02
2023-03-02T13:08:37.298Z,19.78
2023-03-02T13:09:40.116Z,19.47
2023-03-02T13:10:39.238Z,18.49
2023-03-02T13:11:37.215Z,18.61
2023-03-02T13:12:37.248Z,18.37
2023-03-02T13:13:37.250Z,19.08
2023-03-02T13:14:37.176Z,19.13
2023-03-02T13:15:37.199Z,19.68
2023-03-02T13:16:37.623Z,18.97
2023-03-02T13:17:37.228Z,19.53
2023-03-02T13:19:09.688Z,20.10
2023-03-02T13:20:10.683Z,18.97